Time;durP1;ratioP1;P1;durP2;ratioP2;P2;SDS_P1;SDS_P2;PMS_P1;PMS_P2;Temp;Humidity;BMP_temperature;BMP_pressure;BME280_temperature;BME280_humidity;BME280_pressure;Samples;Min_cycle;Max_cycle;Signal;HPM_P1;HPM_P2
2022/08/11 00:00:06;;;;;;;5.05;3.20;;;22.20;82.80;;;;;;6286389;27;84073;-62
2022/08/11 00:03:10;;;;;;;6.88;3.60;;;22.20;82.80;;;;;;6286495;27;83174;-61
2022/08/11 00:06:15;;;;;;;4.38;3.40;;;22.10;82.80;;;;;;6280804;27;84130;-61
2022/08/11 00:09:20;;;;;;;3.97;3.40;;;22.20;82.80;;;;;;6285100;27;84364;-62
2022/08/11 00:12:22;;;;;;;5.57;3.75;;;22.10;83.00;;;;;;6283952;27;85340;-62
2022/08/11 00:15:25;;;;;;;5.38;3.40;;;22.10;83.10;;;;;;6286614;27;84053;-61
2022/08/11 00:18:27;;;;;;;6.00;3.95;;;22.00;83.30;;;;;;6283128;27;84176;-61
2022/08/11 00:21:32;;;;;;;4.40;3.58;;;22.00;83.30;;;;;;6287386;27;83971;-62
2022/08/11 00:24:35;;;;;;;4.97;3.75;;;22.00;83.40;;;;;;6284833;27;84117;-61
2022/08/11 00:27:39;;;;;;;4.47;3.53;;;22.00;83.60;;;;;;6286008;27;83005;-62
2022/08/11 00:30:41;;;;;;;5.57;3.70;;;21.90;83.60;;;;;;6285374;27;83794;-62
2022/08/11 00:33:44;;;;;;;5.05;3.40;;;21.90;83.70;;;;;;6286859;27;82475;-62
2022/08/11 00:36:52;;;;;;;5.38;3.40;;;21.90;83.80;;;;;;6285247;27;83905;-62
2022/08/11 00:39:56;;;;;;;5.05;3.45;;;21.90;84.00;;;;;;6274058;27;84141;-62
2022/08/11 00:43:04;;;;;;;4.63;3.50;;;21.80;83.80;;;;;;6272530;27;84195;-62
2022/08/11 00:46:14;;;;;;;3.47;3.10;;;21.80;84.00;;;;;;6286005;27;84032;-62
2022/08/11 00:49:30;;;;;;;3.92;3.40;;;21.80;84.00;;;;;;6262561;27;83620;-62
2022/08/11 00:52:59;;;;;;;4.55;3.45;;;21.80;83.80;;;;;;6283291;27;84058;-62
2022/08/11 00:56:57;;;;;;;3.60;3.30;;;21.80;83.90;;;;;;6274054;27;84100;-62
2022/08/11 01:00:11;;;;;;;4.18;3.50;;;21.80;83.80;;;;;;6277294;27;84091;-62
2022/08/11 01:03:28;;;;;;;3.95;3.50;;;21.80;83.50;;;;;;6285651;27;84208;-62
2022/08/11 01:06:51;;;;;;;5.05;3.20;;;21.80;83.50;;;;;;6286233;27;82215;-62
2022/08/11 01:10:32;;;;;;;4.15;3.40;;;21.80;84.40;;;;;;6285229;27;84082;-63
2022/08/11 01:14:05;;;;;;;4.50;3.47;;;21.80;83.30;;;;;;6285439;27;84110;-62
2022/08/11 01:17:46;;;;;;;3.65;3.35;;;21.80;83.30;;;;;;6259455;27;83966;-62
2022/08/11 01:21:25;;;;;;;3.88;3.47;;;21.80;83.20;;;;;;6284570;27;83665;-62
2022/08/11 01:24:56;;;;;;;3.70;3.40;;;21.80;83.20;;;;;;6280190;27;84024;-62
2022/08/11 01:29:03;;;;;;;6.50;4.05;;;21.80;83.20;;;;;;6281727;27;84060;-62
2022/08/11 01:32:45;;;;;;;4.60;3.50;;;21.80;83.20;;;;;;6162409;28;84433;-62
2022/08/11 01:36:19;;;;;;;4.13;3.58;;;21.80;83.20;;;;;;6174931;28;84542;-62
2022/08/11 01:39:55;;;;;;;6.13;3.38;;;21.80;83.20;;;;;;6284461;27;84069;-62
2022/08/11 01:46:49;;;;;;;3.85;3.38;;;21.90;84.10;;;;;;6279471;27;82366;-62
2022/08/11 01:50:07;;;;;;;4.80;3.60;;;21.90;83.20;;;;;;6283760;27;84363;-62
2022/08/11 01:53:21;;;;;;;5.50;3.90;;;21.90;83.30;;;;;;6284468;27;84977;-62
2022/08/11 01:56:55;;;;;;;3.67;3.30;;;21.90;83.30;;;;;;6281315;27;84030;-62
2022/08/11 02:00:07;;;;;;;4.93;3.50;;;21.90;83.30;;;;;;6271924;27;83947;-62
2022/08/11 02:03:18;;;;;;;3.90;3.60;;;21.90;83.30;;;;;;6277742;27;84076;-62
2022/08/11 02:13:36;;;;;;;4.30;3.80;;;22.00;83.50;;;;;;6283049;27;83557;-62
2022/08/11 02:16:53;;;;;;;4.40;3.65;;;22.00;83.50;;;;;;6276977;27;83193;-62
2022/08/11 02:23:41;;;;;;;4.93;3.70;;;22.00;83.70;;;;;;6270401;27;82770;-62
2022/08/11 02:26:50;;;;;;;4.30;3.63;;;22.00;83.70;;;;;;6277966;27;84968;-62
2022/08/11 02:30:06;;;;;;;4.80;3.65;;;22.00;83.80;;;;;;6284284;27;83021;-62
2022/08/11 02:33:24;;;;;;;4.00;3.60;;;21.90;83.80;;;;;;6284626;27;82883;-63
2022/08/11 02:36:38;;;;;;;5.68;4.03;;;21.90;83.80;;;;;;6283697;27;84092;-62
2022/08/11 02:39:47;;;;;;;4.88;3.58;;;21.90;83.80;;;;;;6280932;27;84125;-62
2022/08/11 02:43:05;;;;;;;5.55;3.80;;;21.90;83.80;;;;;;6283791;27;84077;-62
2022/08/11 02:46:20;;;;;;;3.47;3.17;;;22.00;83.90;;;;;;6270158;27;84278;-62
2022/08/11 02:49:53;;;;;;;5.15;3.63;;;22.00;83.90;;;;;;6282880;27;83226;-62
2022/08/11 02:53:03;;;;;;;5.80;3.55;;;22.00;83.80;;;;;;6282686;27;83932;-62
2022/08/11 02:56:14;;;;;;;4.60;3.80;;;22.00;83.80;;;;;;6280127;27;84026;-62
2022/08/11 03:03:15;;;;;;;4.18;3.72;;;21.90;83.60;;;;;;6279698;27;82295;-62
2022/08/11 03:06:28;;;;;;;5.32;3.90;;;21.90;83.60;;;;;;6282562;27;84256;-62
2022/08/11 03:09:46;;;;;;;4.07;3.67;;;21.90;83.50;;;;;;6283178;27;83999;-62
2022/08/11 03:16:45;;;;;;;3.85;3.45;;;21.90;83.50;;;;;;6282278;27;81973;-62
2022/08/11 03:19:58;;;;;;;3.97;3.58;;;21.90;83.60;;;;;;6278942;27;83139;-62
2022/08/11 03:23:11;;;;;;;4.22;3.83;;;21.80;83.60;;;;;;6271582;27;83428;-62
2022/08/11 03:26:23;;;;;;;4.10;3.70;;;21.90;83.70;;;;;;6287514;27;83921;-62
2022/08/11 03:29:34;;;;;;;4.30;3.50;;;21.80;83.70;;;;;;6288181;27;84062;-62
2022/08/11 03:34:00;;;;;;;4.25;3.20;;;21.80;83.80;;;;;;6286640;27;84874;-62
2022/08/11 03:36:21;;;;;;;4.65;3.30;;;21.80;83.80;;;;;;6288001;27;82758;-61
2022/08/11 03:39:37;;;;;;;4.72;3.83;;;21.80;84.00;;;;;;6268080;27;84064;-62
2022/08/11 03:42:48;;;;;;;4.70;4.03;;;21.70;84.00;;;;;;6274879;27;83991;-62
2022/08/11 03:45:59;;;;;;;4.03;3.60;;;21.80;84.20;;;;;;6287243;27;84016;-62
2022/08/11 03:49:25;;;;;;;4.05;3.65;;;21.70;84.10;;;;;;6287658;27;84117;-62
2022/08/11 03:52:37;;;;;;;6.30;3.70;;;21.70;84.20;;;;;;6276280;27;84327;-62
2022/08/11 03:56:11;;;;;;;4.13;3.70;;;21.70;84.20;;;;;;6275277;27;82190;-62
2022/08/11 03:59:50;;;;;;;5.07;3.67;;;21.80;84.20;;;;;;6278907;27;82891;-62
2022/08/11 04:03:29;;;;;;;4.53;3.80;;;21.70;84.00;;;;;;6279336;27;83999;-62
2022/08/11 04:07:02;;;;;;;4.30;3.63;;;21.80;84.10;;;;;;6278167;27;84914;-62
2022/08/11 04:10:37;;;;;;;4.47;3.90;;;21.80;84.20;;;;;;6283200;27;83708;-62
2022/08/11 04:18:14;;;;;;;5.85;4.13;;;21.70;84.30;;;;;;6264332;27;82282;-62
2022/08/11 04:21:47;;;;;;;4.88;3.55;;;21.70;84.30;;;;;;6284450;27;84089;-62
2022/08/11 04:25:40;;;;;;;4.78;3.88;;;21.70;84.40;;;;;;6284675;27;83149;-62
2022/08/11 04:29:00;;;;;;;5.07;3.80;;;21.70;84.50;;;;;;6250574;27;84132;-62
2022/08/11 04:32:24;;;;;;;4.72;3.70;;;21.60;84.60;;;;;;6284355;27;83315;-62
2022/08/11 04:35:42;;;;;;;3.90;3.60;;;21.60;84.70;;;;;;6273298;27;83020;-61
2022/08/11 04:38:58;;;;;;;4.53;3.70;;;21.60;84.80;;;;;;6282168;27;83825;-61
2022/08/11 04:46:52;;;;;;;8.02;4.40;;;21.60;84.90;;;;;;6273249;27;83088;-62
2022/08/11 05:08:28;;;;;;;6.00;4.32;;;21.50;86.20;;;;;;6283657;27;81567;-61
2022/08/11 05:12:06;;;;;;;4.97;3.70;;;21.60;86.40;;;;;;6282904;27;84152;-62
2022/08/11 05:35:41;;;;;;;5.22;4.00;;;21.50;87.40;;;;;;6284082;27;83134;-63
2022/08/11 05:59:12;;;;;;;8.23;4.40;;;21.60;87.80;;;;;;6274140;27;82308;-63
2022/08/11 06:02:15;;;;;;;6.38;4.38;;;21.60;88.10;;;;;;6273084;27;84098;-63
2022/08/11 06:05:18;;;;;;;6.07;4.22;;;21.60;87.90;;;;;;6279778;27;84120;-63
2022/08/11 06:08:29;;;;;;;6.18;4.00;;;21.60;87.90;;;;;;6277525;27;83362;-63
2022/08/11 06:11:38;;;;;;;5.75;4.20;;;21.70;87.70;;;;;;6282248;27;84025;-63
2022/08/11 06:14:44;;;;;;;7.38;4.30;;;21.70;87.80;;;;;;6284826;27;83188;-63
2022/08/11 06:17:50;;;;;;;5.57;3.70;;;21.70;87.40;;;;;;6283588;27;84082;-63
2022/08/11 06:20:53;;;;;;;5.28;4.20;;;21.70;87.70;;;;;;6280854;27;84125;-63
2022/08/11 06:23:56;;;;;;;9.82;5.35;;;21.70;88.10;;;;;;6281651;27;85093;-63
2022/08/11 06:27:01;;;;;;;14.52;6.60;;;21.70;88.20;;;;;;6279844;27;84116;-63
2022/08/11 06:30:12;;;;;;;9.27;5.15;;;21.70;90.10;;;;;;6283629;27;84070;-63
2022/08/11 06:33:17;;;;;;;7.05;4.45;;;21.70;89.30;;;;;;6280493;27;84208;-63
2022/08/11 06:36:34;;;;;;;7.03;3.80;;;21.70;87.60;;;;;;6283666;27;83863;-63
2022/08/11 06:39:47;;;;;;;5.00;3.65;;;21.80;88.00;;;;;;6279774;27;84080;-63
2022/08/11 06:42:57;;;;;;;6.07;3.90;;;21.70;87.20;;;;;;6282951;27;83989;-63
2022/08/11 06:46:04;;;;;;;5.10;3.50;;;21.80;87.30;;;;;;6284329;27;83439;-63
2022/08/11 06:51:10;;;;;;;5.22;3.70;;;21.80;87.10;;;;;;6288781;27;84249;-63
2022/08/11 06:52:32;;;;;;;6.30;4.00;;;21.80;87.50;;;;;;6280213;27;83971;-63
2022/08/11 07:02:23;;;;;;;3.95;3.60;;;21.90;86.90;;;;;;6283383;27;82045;-63
2022/08/11 07:05:37;;;;;;;4.55;3.53;;;21.80;86.90;;;;;;6278097;27;84577;-63
2022/08/11 07:16:03;;;;;;;6.15;3.70;;;21.90;86.90;;;;;;6248468;27;82720;-63
2022/08/11 07:29:29;;;;;;;5.00;3.50;;;22.00;86.50;;;;;;6276340;27;83832;-62
2022/08/11 07:32:37;;;;;;;5.30;3.53;;;22.00;86.10;;;;;;6281440;27;84112;-63
2022/08/11 07:35:45;;;;;;;4.13;3.72;;;22.00;86.20;;;;;;6282105;27;84081;-63
2022/08/11 07:38:51;;;;;;;4.43;3.25;;;22.00;86.00;;;;;;6267582;27;83982;-63
2022/08/11 07:41:57;;;;;;;3.63;3.28;;;22.00;85.40;;;;;;6278742;27;84185;-63
2022/08/11 07:55:04;;;;;;;7.15;3.45;;;22.00;86.20;;;;;;6281742;27;82190;-63
2022/08/11 08:18:10;;;;;;;4.57;3.38;;;22.10;85.40;;;;;;6286253;27;83005;-63
2022/08/11 08:21:15;;;;;;;4.60;3.08;;;22.10;84.90;;;;;;6286116;27;84037;-64
2022/08/11 08:24:20;;;;;;;4.68;2.90;;;22.20;84.80;;;;;;6287633;27;81886;-63
2022/08/11 08:27:24;;;;;;;4.22;3.30;;;22.20;85.10;;;;;;6285098;27;83986;-63
2022/08/11 08:33:47;;;;;;;3.20;2.90;;;22.20;85.20;;;;;;6271419;27;83343;-63
2022/08/11 08:36:51;;;;;;;3.55;2.92;;;22.30;84.70;;;;;;6273532;27;84502;-63
2022/08/11 08:39:54;;;;;;;3.30;3.00;;;22.30;83.80;;;;;;6279969;27;84028;-63
2022/08/11 08:43:02;;;;;;;3.80;2.90;;;22.30;82.80;;;;;;6283922;27;84035;-63
2022/08/11 08:46:09;;;;;;;4.07;2.90;;;22.30;83.00;;;;;;6285561;27;84222;-63
2022/08/11 08:49:16;;;;;;;3.42;3.10;;;22.30;82.70;;;;;;6276319;27;84254;-63
2022/08/11 08:52:23;;;;;;;4.68;2.92;;;22.30;82.40;;;;;;6266396;27;84063;-63
2022/08/11 08:55:28;;;;;;;4.82;2.58;;;22.40;83.00;;;;;;6285016;27;83282;-63
2022/08/11 08:58:33;;;;;;;3.38;2.80;;;22.30;82.40;;;;;;6285439;27;84225;-63
2022/08/11 09:01:43;;;;;;;3.83;2.50;;;22.40;81.90;;;;;;6284122;27;85145;-63
2022/08/11 09:04:46;;;;;;;2.85;2.58;;;22.40;81.20;;;;;;6284592;27;84901;-63
2022/08/11 09:07:56;;;;;;;3.13;2.58;;;22.40;81.00;;;;;;6286036;27;84185;-63
2022/08/11 09:14:23;;;;;;;3.58;2.60;;;22.40;80.80;;;;;;6283466;27;82439;-63
2022/08/11 09:17:26;;;;;;;4.45;2.78;;;22.40;80.80;;;;;;6276034;27;83995;-63
2022/08/11 09:20:32;;;;;;;4.53;2.72;;;22.40;80.70;;;;;;6282084;27;84198;-63
2022/08/11 09:27:02;;;;;;;3.22;2.63;;;22.40;80.50;;;;;;6284424;27;82106;-63
2022/08/11 09:30:05;;;;;;;2.97;2.67;;;22.40;81.70;;;;;;6274600;27;83018;-63
2022/08/11 09:33:11;;;;;;;5.53;2.80;;;22.40;81.20;;;;;;6279831;27;84102;-63
2022/08/11 09:46:26;;;;;;;3.95;2.70;;;22.40;80.30;;;;;;6283996;27;82277;-63
2022/08/11 09:49:29;;;;;;;3.83;2.70;;;22.40;80.20;;;;;;6279895;27;84051;-63
2022/08/11 09:52:35;;;;;;;3.50;2.72;;;22.40;80.70;;;;;;6283042;27;84149;-63
2022/08/11 09:55:39;;;;;;;4.10;2.60;;;22.40;80.60;;;;;;6284703;27;84305;-63
2022/08/11 09:58:43;;;;;;;3.53;2.58;;;22.40;80.30;;;;;;6283713;27;83486;-64
2022/08/11 10:01:47;;;;;;;2.72;2.53;;;22.50;80.10;;;;;;6284368;27;83994;-63
2022/08/11 10:04:53;;;;;;;3.00;2.67;;;22.50;80.60;;;;;;6284013;27;84147;-63
2022/08/11 10:07:54;;;;;;;4.35;2.50;;;22.50;80.60;;;;;;6282344;27;84944;-63
2022/08/11 10:10:58;;;;;;;3.10;2.60;;;22.50;80.80;;;;;;6274275;27;84207;-63
2022/08/11 10:17:22;;;;;;;4.05;2.38;;;22.50;80.20;;;;;;6284470;27;82393;-63
2022/08/11 10:20:24;;;;;;;3.58;3.03;;;22.50;80.50;;;;;;6282570;27;83985;-63
2022/08/11 10:26:57;;;;;;;2.97;2.78;;;22.50;81.10;;;;;;6280918;27;82733;-63
2022/08/11 10:36:43;;;;;;;2.80;2.60;;;22.50;81.50;;;;;;6283578;27;82643;-63
2022/08/11 10:39:46;;;;;;;3.15;2.80;;;22.50;81.00;;;;;;6275970;27;85000;-63
2022/08/11 10:43:05;;;;;;;3.42;2.92;;;22.50;80.80;;;;;;6281367;27;82726;-63
2022/08/11 10:49:30;;;;;;;3.00;2.70;;;22.60;80.80;;;;;;6278643;27;82276;-63
2022/08/11 10:59:14;;;;;;;3.90;2.90;;;22.60;80.80;;;;;;6278696;27;82540;-63
2022/08/11 11:02:17;;;;;;;3.65;2.50;;;22.60;80.80;;;;;;6280267;27;83620;-63
2022/08/11 11:05:25;;;;;;;6.63;2.90;;;22.60;81.10;;;;;;6274639;27;84037;-63
2022/08/11 11:18:37;;;;;;;3.08;2.78;;;22.70;80.80;;;;;;6281685;27;82200;-63
2022/08/11 11:21:40;;;;;;;3.42;2.65;;;22.70;80.90;;;;;;6282652;27;84273;-64
2022/08/11 11:24:57;;;;;;;3.30;2.80;;;22.70;81.10;;;;;;6278639;27;84077;-63
2022/08/11 11:28:34;;;;;;;3.13;2.63;;;22.70;81.10;;;;;;6274119;27;83341;-63
2022/08/11 11:31:51;;;;;;;4.10;2.70;;;22.70;80.30;;;;;;6225220;28;84174;-64
2022/08/11 11:35:30;;;;;;;4.38;2.80;;;22.70;80.00;;;;;;6279784;27;83649;-63
2022/08/11 11:38:32;;;;;;;3.15;2.75;;;22.70;80.20;;;;;;6261129;27;83378;-63
2022/08/11 11:41:36;;;;;;;3.15;2.50;;;22.70;80.50;;;;;;6285788;27;84117;-63
2022/08/11 11:44:38;;;;;;;3.75;2.80;;;22.70;80.60;;;;;;6285147;27;83442;-63
2022/08/11 11:47:43;;;;;;;4.07;2.70;;;22.70;80.80;;;;;;6286337;27;84083;-63
2022/08/11 11:50:45;;;;;;;5.03;3.03;;;22.70;81.30;;;;;;6286907;27;84080;-64
2022/08/11 11:53:48;;;;;;;3.38;2.92;;;22.70;81.40;;;;;;6285231;27;84151;-63
2022/08/11 11:56:52;;;;;;;3.08;2.78;;;22.70;81.50;;;;;;6286870;27;83415;-63
2022/08/11 12:03:18;;;;;;;4.10;2.80;;;22.70;80.90;;;;;;6278576;27;82183;-63
2022/08/11 12:06:23;;;;;;;3.78;2.85;;;22.80;80.90;;;;;;6280732;27;83259;-64
2022/08/11 12:09:25;;;;;;;2.90;2.65;;;22.80;80.80;;;;;;6280204;27;84611;-63
2022/08/11 12:15:48;;;;;;;3.53;2.80;;;22.80;80.40;;;;;;6284386;27;83221;-63
2022/08/11 12:18:54;;;;;;;3.60;2.72;;;22.90;80.60;;;;;;6283538;27;83767;-63
2022/08/11 12:28:38;;;;;;;3.28;2.97;;;22.90;80.60;;;;;;6286055;27;82074;-63
2022/08/11 12:31:42;;;;;;;3.17;2.63;;;22.90;80.50;;;;;;6281437;27;83021;-63
2022/08/11 12:34:46;;;;;;;3.25;2.88;;;22.90;80.50;;;;;;6278803;27;83660;-64
2022/08/11 12:37:53;;;;;;;5.30;3.35;;;22.90;79.80;;;;;;6286258;27;83402;-63
2022/08/11 12:51:55;;;;;;;2.67;2.45;;;22.90;79.80;;;;;;6274451;27;84073;-64
2022/08/11 12:54:29;;;;;;;3.28;2.75;;;22.90;79.80;;;;;;6284710;27;82130;-64
2022/08/11 13:07:40;;;;;;;4.25;2.70;;;23.00;77.80;;;;;;6285090;27;82107;-64
2022/08/11 13:14:03;;;;;;;2.90;2.60;;;22.90;77.60;;;;;;6282111;27;82238;-63
2022/08/11 13:17:23;;;;;;;2.80;2.50;;;22.90;77.70;;;;;;6285202;27;84020;-63
2022/08/11 13:20:26;;;;;;;3.15;2.50;;;22.90;77.60;;;;;;6272076;27;84970;-64
2022/08/11 13:23:30;;;;;;;3.25;2.42;;;22.90;77.80;;;;;;6284200;27;84069;-63
2022/08/11 13:26:35;;;;;;;3.75;2.75;;;22.90;78.30;;;;;;6284397;27;82953;-64
2022/08/11 13:29:39;;;;;;;3.63;2.80;;;23.00;78.00;;;;;;6284411;27;84123;-64
2022/08/11 13:32:44;;;;;;;4.93;3.22;;;22.90;77.70;;;;;;6282672;27;83948;-64
2022/08/11 13:35:48;;;;;;;2.70;2.50;;;23.00;78.10;;;;;;6285370;27;84355;-63
2022/08/11 13:38:54;;;;;;;3.55;2.70;;;22.90;77.90;;;;;;6273103;27;84148;-63
2022/08/11 13:41:59;;;;;;;2.70;2.47;;;23.00;77.70;;;;;;6285250;27;84736;-64
2022/08/11 13:45:01;;;;;;;3.30;2.40;;;22.90;77.80;;;;;;6282996;27;84189;-63
2022/08/11 13:48:08;;;;;;;2.47;2.28;;;23.00;77.40;;;;;;6283866;27;83984;-64
2022/08/11 13:54:37;;;;;;;2.40;2.20;;;22.90;76.60;;;;;;6283359;27;82293;-63
2022/08/11 13:57:39;;;;;;;2.75;2.50;;;23.00;77.10;;;;;;6264626;27;82723;-64
2022/08/11 14:00:44;;;;;;;2.67;2.45;;;23.00;77.10;;;;;;6273903;27;84122;-63
2022/08/11 14:03:47;;;;;;;4.45;2.53;;;23.00;76.70;;;;;;6274297;27;84370;-64
2022/08/11 14:06:53;;;;;;;2.78;2.50;;;23.00;76.30;;;;;;6284335;27;83987;-64
2022/08/11 14:09:59;;;;;;;4.25;2.67;;;23.00;75.50;;;;;;6284576;27;84094;-64
2022/08/11 14:16:29;;;;;;;2.75;2.38;;;23.00;75.70;;;;;;6272694;27;82432;-64
2022/08/11 14:19:35;;;;;;;3.35;2.20;;;23.00;75.00;;;;;;6283291;27;83975;-64
2022/08/11 14:22:41;;;;;;;3.65;2.17;;;23.00;74.00;;;;;;6283408;27;85220;-63
2022/08/11 14:29:04;;;;;;;2.63;2.10;;;23.00;74.40;;;;;;6282000;27;82646;-64
2022/08/11 14:32:09;;;;;;;2.88;2.15;;;23.00;74.70;;;;;;6282219;27;83239;-64
2022/08/11 14:35:11;;;;;;;2.53;2.10;;;23.00;75.00;;;;;;6281728;27;84060;-64
2022/08/11 14:38:14;;;;;;;2.83;2.00;;;23.00;74.80;;;;;;6281857;27;84062;-64
2022/08/11 14:48:03;;;;;;;2.08;1.95;;;23.00;72.70;;;;;;6279829;27;82572;-64
2022/08/11 14:51:06;;;;;;;2.88;2.10;;;23.00;71.80;;;;;;6282211;27;83135;-64
2022/08/11 14:57:31;;;;;;;2.20;1.98;;;23.00;71.90;;;;;;6282538;27;82754;-64
2022/08/11 15:00:34;;;;;;;3.80;1.90;;;23.00;70.50;;;;;;6273363;27;82793;-64
2022/08/11 15:03:35;;;;;;;2.63;2.40;;;23.00;70.90;;;;;;6283029;27;83869;-64
2022/08/11 15:06:38;;;;;;;2.20;2.00;;;23.00;71.60;;;;;;6281795;27;82652;-64
2022/08/11 15:09:42;;;;;;;2.90;2.00;;;23.00;71.70;;;;;;6285833;27;84051;-63
2022/08/11 15:12:47;;;;;;;3.63;1.90;;;23.00;72.00;;;;;;6275120;27;89160;-64
2022/08/11 15:19:09;;;;;;;2.38;1.90;;;23.00;71.60;;;;;;6275297;27;87307;-63
2022/08/11 15:25:33;;;;;;;2.40;1.95;;;23.00;71.00;;;;;;6278896;27;89705;-64
2022/08/11 15:38:44;;;;;;;2.10;1.90;;;23.10;70.80;;;;;;6279028;27;88519;-63
2022/08/11 15:48:43;;;;;;;2.55;2.00;;;23.10;71.50;;;;;;6264440;27;86543;-63
2022/08/11 15:51:49;;;;;;;2.58;2.00;;;23.10;71.10;;;;;;6280761;27;89048;-63
2022/08/11 15:54:51;;;;;;;3.10;2.00;;;23.10;71.00;;;;;;6278219;27;89471;-64
2022/08/11 16:04:42;;;;;;;2.35;1.80;;;23.10;70.20;;;;;;6284149;27;87298;-64
2022/08/11 16:07:48;;;;;;;2.08;1.80;;;23.10;70.30;;;;;;6282057;27;88973;-64
2022/08/11 16:10:54;;;;;;;4.68;1.98;;;23.10;70.30;;;;;;6270058;27;89056;-64
2022/08/11 16:17:20;;;;;;;2.17;1.80;;;23.10;71.20;;;;;;6281708;27;87210;-63
2022/08/11 16:20:26;;;;;;;3.45;2.13;;;23.10;70.50;;;;;;6281594;27;88405;-64
2022/08/11 16:23:28;;;;;;;2.90;2.00;;;23.10;70.80;;;;;;6282720;27;88087;-64
2022/08/11 16:26:32;;;;;;;2.17;1.98;;;23.10;70.80;;;;;;6281747;27;89095;-64
2022/08/11 16:29:36;;;;;;;3.10;2.22;;;23.10;71.00;;;;;;6274463;27;90006;-63
2022/08/11 16:32:44;;;;;;;2.67;1.92;;;23.10;71.10;;;;;;6281647;27;89135;-64
2022/08/11 16:39:18;;;;;;;3.17;2.10;;;23.00;71.30;;;;;;6217344;27;89238;-64
2022/08/11 16:49:07;;;;;;;4.30;1.90;;;23.00;71.60;;;;;;6256035;27;89515;-63
2022/08/11 16:52:11;;;;;;;3.88;2.20;;;23.00;71.70;;;;;;6282143;27;88294;-64
2022/08/11 16:55:14;;;;;;;3.83;1.92;;;23.00;71.80;;;;;;6282257;27;88993;-63
2022/08/11 17:01:37;;;;;;;4.28;2.17;;;23.00;72.20;;;;;;6280512;27;88362;-63
2022/08/11 17:14:57;;;;;;;3.20;2.22;;;23.00;73.60;;;;;;6272582;27;89020;-64
2022/08/11 17:18:01;;;;;;;4.55;2.00;;;23.00;73.70;;;;;;6281285;27;89295;-63
2022/08/11 17:21:05;;;;;;;3.38;1.95;;;23.00;73.80;;;;;;6270847;27;89037;-63
2022/08/11 17:24:13;;;;;;;2.30;2.10;;;23.00;74.00;;;;;;6280722;27;88192;-63
2022/08/11 17:27:17;;;;;;;2.50;1.90;;;23.00;73.60;;;;;;6279134;27;89175;-63
2022/08/11 17:30:20;;;;;;;2.70;1.70;;;23.00;73.80;;;;;;6278183;27;89311;-63
2022/08/11 17:36:44;;;;;;;2.20;1.90;;;23.00;74.30;;;;;;6277006;27;87712;-63
2022/08/11 17:39:47;;;;;;;2.53;1.80;;;23.00;74.70;;;;;;6277386;27;89055;-64
2022/08/11 17:49:36;;;;;;;3.08;2.40;;;23.00;74.50;;;;;;6278767;27;87292;-63
2022/08/11 18:06:06;;;;;;;3.80;2.00;;;23.00;74.50;;;;;;6270702;27;88846;-64
